Time;durP1;ratioP1;P1;durP2;ratioP2;P2;SDS_P1;SDS_P2;PMS_P1;PMS_P2;Temp;Humidity;BMP_temperature;BMP_pressure;BME280_temperature;BME280_humidity;BME280_pressure;Samples;Min_cycle;Max_cycle;Signal;HPM_P1;HPM_P2
2021/11/16 00:00:46;;;;;;;24.17;14.73;;;;;;;7.95;nan;101134.06;4994632;28;20045;-78
2021/11/16 00:03:13;;;;;;;25.58;14.40;;;;;;;7.94;nan;101130.59;4993977;28;20566;-78
2021/11/16 00:05:39;;;;;;;27.55;15.40;;;;;;;7.91;nan;101129.97;4994678;28;20042;-77
2021/11/16 00:08:06;;;;;;;28.17;15.88;;;;;;;7.96;nan;101136.56;4994750;28;20261;-78
2021/11/16 00:10:31;;;;;;;22.70;14.10;;;;;;;7.91;nan;101136.06;4995294;28;20043;-78
2021/11/16 00:12:58;;;;;;;25.42;14.40;;;;;;;7.99;nan;101132.88;4995169;28;20041;-78
2021/11/16 00:15:23;;;;;;;23.08;13.85;;;;;;;8.02;nan;101135.25;4995227;28;20078;-77
2021/11/16 00:17:49;;;;;;;27.15;15.60;;;;;;;8.00;nan;101131.91;5010262;28;20122;-78
2021/11/16 00:20:15;;;;;;;24.73;14.40;;;;;;;8.04;nan;101136.81;4993436;28;20073;-78
2021/11/16 00:22:42;;;;;;;26.30;15.73;;;;;;;8.01;nan;101142.31;4993517;28;20092;-78
2021/11/16 00:27:41;;;;;;;23.08;13.45;;;;;;;7.99;nan;101143.41;4994508;28;20045;-78
2021/11/16 00:30:07;;;;;;;29.40;16.90;;;;;;;7.98;nan;101139.06;4994101;28;20038;-77
2021/11/16 00:32:33;;;;;;;29.67;16.40;;;;;;;8.00;nan;101145.88;4993613;28;20035;-77
2021/11/16 00:34:59;;;;;;;30.38;16.58;;;;;;;8.01;nan;101139.69;4993890;28;20097;-77
2021/11/16 00:37:27;;;;;;;30.23;16.88;;;;;;;7.96;nan;101135.72;4996114;28;20034;-77
2021/11/16 00:39:59;;;;;;;28.85;16.08;;;;;;;7.92;nan;101136.94;4994037;28;20034;-78
2021/11/16 00:42:24;;;;;;;;;;;;;;;7.84;nan;101141.00;4994835;28;20034;-77
2021/11/16 00:44:50;;;;;;;28.42;15.95;;;;;;;7.62;nan;101146.22;4994513;28;20397;-78
2021/11/16 00:47:15;;;;;;;24.95;14.65;;;;;;;7.70;nan;101148.25;4994390;28;20418;-78
2021/11/16 00:49:41;;;;;;;24.77;14.20;;;;;;;7.72;nan;101141.91;4994398;28;20077;-78
2021/11/16 00:52:06;;;;;;;26.13;14.48;;;;;;;7.83;nan;101147.19;4992927;28;20040;-77
2021/11/16 00:54:32;;;;;;;25.83;15.45;;;;;;;7.80;nan;101144.81;4992759;28;20065;-78
2021/11/16 00:56:57;;;;;;;27.63;15.05;;;;;;;7.86;nan;101147.00;4991980;28;20034;-77
2021/11/16 00:59:22;;;;;;;27.67;15.27;;;;;;;7.85;nan;101147.09;4992935;28;20062;-78
2021/11/16 01:01:48;;;;;;;25.90;14.57;;;;;;;7.87;nan;101150.44;4993190;28;20065;-79
2021/11/16 01:04:17;;;;;;;25.65;15.38;;;;;;;7.83;nan;101149.00;4991170;28;20069;-78
2021/11/16 01:06:44;;;;;;;31.67;16.05;;;;;;;7.91;nan;101156.31;4992776;28;20035;-78
2021/11/16 01:09:10;;;;;;;27.15;15.13;;;;;;;7.76;nan;101150.44;4992276;28;20045;-77
2021/11/16 01:11:36;;;;;;;24.98;13.82;;;;;;;7.76;nan;101151.28;4993065;28;20034;-77
2021/11/16 01:14:02;;;;;;;19.60;12.40;;;;;;;7.76;nan;101159.16;4991194;28;20031;-78
2021/11/16 01:16:28;;;;;;;19.85;11.55;;;;;;;7.73;nan;101154.16;4992366;28;20042;-77
2021/11/16 01:18:53;;;;;;;20.98;12.93;;;;;;;7.68;nan;101151.03;4992118;28;20037;-78
2021/11/16 01:21:19;;;;;;;29.00;16.20;;;;;;;7.84;nan;101151.53;4992996;28;20065;-78
2021/11/16 01:23:46;;;;;;;29.50;16.05;;;;;;;7.72;nan;101154.25;4991983;28;20070;-78
2021/11/16 01:26:12;;;;;;;28.83;16.42;;;;;;;7.77;nan;101150.31;4991942;28;20038;-78
2021/11/16 01:28:37;;;;;;;34.38;17.63;;;;;;;7.86;nan;101144.34;4992279;28;20039;-78
2021/11/16 01:31:05;;;;;;;29.60;15.73;;;;;;;7.83;nan;101147.19;4992048;28;20061;-78
2021/11/16 01:33:44;;;;;;;27.25;15.52;;;;;;;7.71;nan;101140.25;4991910;28;20035;-78
2021/11/16 01:36:12;;;;;;;28.30;15.05;;;;;;;7.79;nan;101143.13;5002806;28;20495;-77
2021/11/16 01:38:39;;;;;;;25.58;14.93;;;;;;;7.69;nan;101143.97;4997226;28;20126;-78
2021/11/16 01:41:05;;;;;;;24.90;13.90;;;;;;;7.73;nan;101140.16;4992423;28;20035;-78
2021/11/16 01:43:30;;;;;;;28.90;16.60;;;;;;;7.66;nan;101145.88;4990700;28;20097;-78
2021/11/16 01:46:08;;;;;;;31.40;16.90;;;;;;;7.71;nan;101137.63;4991396;28;20121;-77
2021/11/16 01:48:35;;;;;;;26.92;14.75;;;;;;;7.69;nan;101136.06;4990086;28;20041;-77
2021/11/16 01:51:01;;;;;;;25.27;13.65;;;;;;;7.69;nan;101138.69;4991089;28;20537;-78
2021/11/16 01:53:28;;;;;;;29.00;15.73;;;;;;;7.78;nan;101135.38;4992055;28;20126;-78
2021/11/16 01:55:53;;;;;;;32.30;17.17;;;;;;;7.78;nan;101130.94;4991607;28;20537;-77
2021/11/16 01:58:19;;;;;;;30.02;15.93;;;;;;;7.74;nan;101129.47;4990965;28;20034;-77
2021/11/16 02:00:46;;;;;;;29.67;15.90;;;;;;;7.68;nan;101127.34;4991341;28;20104;-78
2021/11/16 02:03:12;;;;;;;33.83;16.88;;;;;;;7.74;nan;101132.13;4990898;28;20073;-79
2021/11/16 02:05:51;;;;;;;30.73;15.40;;;;;;;7.73;nan;101129.63;4991625;28;20034;-76
2021/11/16 02:08:17;;;;;;;31.92;15.65;;;;;;;7.77;nan;101129.28;5004570;28;20044;-77
2021/11/16 02:10:46;;;;;;;27.90;15.05;;;;;;;7.72;nan;101130.56;4991825;28;20046;-77
2021/11/16 02:13:13;;;;;;;24.40;14.40;;;;;;;7.68;nan;101122.06;4992112;28;20034;-76
2021/11/16 02:15:38;;;;;;;24.80;13.45;;;;;;;7.63;nan;101129.50;4994099;28;20039;-77
2021/11/16 02:18:07;;;;;;;25.75;13.38;;;;;;;7.70;nan;101125.44;4999781;28;20073;-77
2021/11/16 02:20:33;;;;;;;29.50;15.60;;;;;;;7.77;nan;101117.88;4990830;28;20136;-77
2021/11/16 02:22:58;;;;;;;26.70;14.75;;;;;;;7.63;nan;101121.59;4991485;28;20484;-76
2021/11/16 02:25:24;;;;;;;24.60;13.63;;;;;;;7.57;nan;101114.16;4991293;28;20053;-76
2021/11/16 02:27:50;;;;;;;24.40;13.02;;;;;;;7.63;nan;101116.34;4991801;28;20035;-76
2021/11/16 02:30:15;;;;;;;26.27;13.85;;;;;;;7.70;nan;101114.03;4990880;28;20427;-77
2021/11/16 02:32:46;;;;;;;25.92;13.50;;;;;;;7.74;nan;101110.22;4991226;28;20038;-76
2021/11/16 02:35:11;;;;;;;25.75;13.32;;;;;;;7.72;nan;101112.13;4994319;28;20105;-76
2021/11/16 02:37:36;;;;;;;27.55;13.95;;;;;;;7.75;nan;101109.28;5005661;28;20027;-76
2021/11/16 02:40:03;;;;;;;25.27;13.85;;;;;;;7.77;nan;101112.59;4990323;28;20451;-76
2021/11/16 02:42:29;;;;;;;27.35;15.02;;;;;;;7.75;nan;101101.38;4991253;28;20053;-76
2021/11/16 02:44:54;;;;;;;23.05;12.80;;;;;;;7.72;nan;101104.25;4990080;28;20038;-77
2021/11/16 02:47:20;;;;;;;22.95;13.00;;;;;;;7.65;nan;101104.72;4989490;28;20030;-76
2021/11/16 02:49:45;;;;;;;24.58;12.50;;;;;;;7.67;nan;101107.22;4990987;28;20120;-76
2021/11/16 02:52:12;;;;;;;22.45;12.02;;;;;;;7.68;nan;101101.03;4991009;28;20125;-77
2021/11/16 02:54:38;;;;;;;25.20;13.25;;;;;;;7.72;nan;101104.25;4971884;28;20163;-77
2021/11/16 02:57:11;;;;;;;24.60;13.32;;;;;;;7.71;nan;101102.56;4975666;28;20537;-77
2021/11/16 02:59:37;;;;;;;19.10;10.60;;;;;;;7.70;nan;101098.25;4988677;28;20038;-77
2021/11/16 03:02:03;;;;;;;18.42;9.95;;;;;;;7.70;nan;101092.97;4990600;28;20142;-77
2021/11/16 03:04:33;;;;;;;20.17;11.40;;;;;;;7.71;nan;101095.50;4990130;28;20051;-77
2021/11/16 03:07:04;;;;;;;15.45;8.88;;;;;;;7.70;nan;101093.84;4990258;28;20030;-76
2021/11/16 03:09:32;;;;;;;16.38;9.63;;;;;;;7.66;nan;101087.97;4990813;28;20042;-77
2021/11/16 03:11:59;;;;;;;16.85;9.73;;;;;;;7.66;nan;101076.59;4989058;28;20034;-76
2021/11/16 03:14:26;;;;;;;15.18;9.00;;;;;;;7.69;nan;101072.91;4988776;28;20124;-77
2021/11/16 03:16:51;;;;;;;12.23;7.68;;;;;;;7.69;nan;101076.34;4990650;28;20411;-77
2021/11/16 03:19:16;;;;;;;12.52;7.47;;;;;;;7.71;nan;101079.72;4990793;28;20044;-77
2021/11/16 03:21:54;;;;;;;13.57;7.30;;;;;;;7.71;nan;101079.72;4990811;28;20032;-76
2021/11/16 03:24:20;;;;;;;19.63;10.50;;;;;;;7.70;nan;101067.53;4990331;28;20064;-77
2021/11/16 03:26:45;;;;;;;23.02;12.88;;;;;;;7.79;nan;101073.84;4990363;28;20035;-76
2021/11/16 03:29:12;;;;;;;27.52;14.82;;;;;;;7.75;nan;101068.00;4990612;28;20069;-77
2021/11/16 03:31:41;;;;;;;25.35;14.20;;;;;;;7.76;nan;101063.56;4990516;28;20056;-77
2021/11/16 03:34:06;;;;;;;26.20;13.80;;;;;;;7.69;nan;101072.91;4988532;28;20034;-77
2021/11/16 03:36:32;;;;;;;24.17;13.27;;;;;;;7.68;nan;101061.53;4994953;28;20446;-77
2021/11/16 03:39:01;;;;;;;28.35;13.93;;;;;;;7.64;nan;101060.91;4990036;28;20241;-77
2021/11/16 03:41:27;;;;;;;26.35;14.15;;;;;;;7.62;nan;101062.84;4990157;28;20040;-77
2021/11/16 03:43:54;;;;;;;23.25;13.50;;;;;;;7.60;nan;101067.41;4988888;28;20492;-76
2021/11/16 03:46:20;;;;;;;24.77;13.27;;;;;;;7.61;nan;101055.06;4989386;28;20405;-77
2021/11/16 03:48:46;;;;;;;26.85;12.85;;;;;;;7.63;nan;101055.78;4990669;28;20038;-76
2021/11/16 03:51:11;;;;;;;25.75;13.98;;;;;;;7.58;nan;101052.66;4990025;28;20042;-77
2021/11/16 03:53:37;;;;;;;20.63;11.75;;;;;;;7.54;nan;101054.72;4989180;28;20031;-77
2021/11/16 03:56:02;;;;;;;22.52;12.38;;;;;;;7.55;nan;101056.38;4989543;28;20117;-77
2021/11/16 03:58:28;;;;;;;20.00;10.75;;;;;;;7.54;nan;101056.50;4989212;28;20315;-77
2021/11/16 04:00:57;;;;;;;25.02;12.07;;;;;;;7.51;nan;101048.84;4990025;28;20057;-77
2021/11/16 04:03:25;;;;;;;24.60;13.20;;;;;;;7.48;nan;101051.72;4989408;28;20035;-77
2021/11/16 04:05:52;;;;;;;21.75;12.07;;;;;;;7.47;nan;101048.25;4989216;28;20125;-76
2021/11/16 04:08:17;;;;;;;24.45;13.45;;;;;;;7.47;nan;101047.41;4990091;28;20080;-76
2021/11/16 04:10:44;;;;;;;21.13;11.27;;;;;;;7.51;nan;101046.19;4990888;28;20125;-77
2021/11/16 04:13:11;;;;;;;17.80;10.18;;;;;;;7.54;nan;101040.72;4993513;28;20058;-76
2021/11/16 04:15:36;;;;;;;17.90;9.07;;;;;;;7.53;nan;101042.53;4994250;28;20042;-76
2021/11/16 04:18:02;;;;;;;23.35;12.52;;;;;;;7.49;nan;101037.63;4993817;28;20102;-76
2021/11/16 04:20:32;;;;;;;24.45;12.95;;;;;;;7.45;nan;101043.09;4989691;28;20039;-77
2021/11/16 04:23:00;;;;;;;22.27;12.13;;;;;;;7.49;nan;101048.13;4987822;28;20495;-76
2021/11/16 04:25:26;;;;;;;28.90;14.00;;;;;;;7.55;nan;101043.22;5004748;28;20407;-76
2021/11/16 04:27:53;;;;;;;25.30;13.80;;;;;;;7.51;nan;101043.56;4989776;28;20035;-77
2021/11/16 04:30:21;;;;;;;21.38;11.40;;;;;;;7.49;nan;101041.06;4989445;28;20463;-77
2021/11/16 04:32:47;;;;;;;19.45;10.70;;;;;;;7.54;nan;101038.91;4989698;28;20035;-77
2021/11/16 04:35:15;;;;;;;19.55;10.82;;;;;;;7.49;nan;101038.44;4992534;28;20112;-77
2021/11/16 04:37:43;;;;;;;15.98;8.95;;;;;;;7.53;nan;101042.53;4984473;28;20039;-77
2021/11/16 04:40:11;;;;;;;18.70;10.25;;;;;;;7.58;nan;101042.13;4988513;28;20026;-77
2021/11/16 04:42:37;;;;;;;29.30;14.52;;;;;;;7.69;nan;101036.03;4990185;28;20530;-77
2021/11/16 04:45:06;;;;;;;28.05;14.90;;;;;;;7.55;nan;101039.75;4991316;28;20042;-77
2021/11/16 04:47:37;;;;;;;21.25;12.10;;;;;;;7.49;nan;101037.63;4992964;28;20039;-76
2021/11/16 04:50:23;;;;;;;21.67;12.30;;;;;;;7.40;nan;101037.34;5001243;28;20072;-76
2021/11/16 04:55:46;;;;;;;29.92;14.15;;;;;;;7.51;nan;101028.63;4992726;28;20093;-76
2021/11/16 05:03:51;;;;;;;24.58;13.32;;;;;;;7.43;nan;101039.75;4964859;28;20066;-76
2021/11/16 05:06:17;;;;;;;22.70;12.50;;;;;;;7.39;nan;101034.88;4992025;28;20054;-76
2021/11/16 05:08:45;;;;;;;26.05;14.32;;;;;;;7.33;nan;101038.78;4992191;28;20069;-76
2021/11/16 05:11:11;;;;;;;25.85;13.80;;;;;;;7.32;nan;101033.66;4992922;28;20499;-75
2021/11/16 05:13:39;;;;;;;25.30;12.80;;;;;;;7.35;nan;101036.88;4992657;28;20030;-76
2021/11/16 05:16:07;;;;;;;22.48;11.95;;;;;;;7.38;nan;101036.63;4996432;28;20088;-76
2021/11/16 05:18:32;;;;;;;25.25;13.27;;;;;;;7.47;nan;101040.34;4984218;28;20053;-76
2021/11/16 05:20:58;;;;;;;25.90;13.63;;;;;;;7.47;nan;101036.88;4992658;28;20058;-75
2021/11/16 05:23:24;;;;;;;24.95;14.23;;;;;;;7.35;nan;101033.41;4992353;28;20038;-76
2021/11/16 05:25:51;;;;;;;25.52;12.85;;;;;;;7.40;nan;101042.63;4990792;28;20061;-76
2021/11/16 05:28:17;;;;;;;27.23;14.45;;;;;;;7.48;nan;101046.44;4990902;28;20038;-76
2021/11/16 05:30:44;;;;;;;26.02;13.27;;;;;;;7.44;nan;101046.69;4981244;28;20553;-79
2021/11/16 05:33:09;;;;;;;26.75;13.40;;;;;;;7.41;nan;101051.34;4992597;28;20041;-77
2021/11/16 05:35:34;;;;;;;24.48;13.13;;;;;;;7.47;nan;101057.94;4995086;28;20414;-76
2021/11/16 05:38:00;;;;;;;28.10;13.25;;;;;;;7.47;nan;101048.25;4992011;28;20035;-76
2021/11/16 05:40:26;;;;;;;25.35;13.80;;;;;;;7.45;nan;101055.41;4992278;28;20046;-77
2021/11/16 05:42:51;;;;;;;28.05;14.10;;;;;;;7.44;nan;101051.13;4991831;28;20093;-76
2021/11/16 05:45:16;;;;;;;26.60;14.88;;;;;;;7.48;nan;101062.22;4992394;28;20022;-77
2021/11/16 05:47:42;;;;;;;28.05;14.15;;;;;;;7.50;nan;101062.97;4991966;28;20510;-75
2021/11/16 05:50:09;;;;;;;29.90;15.05;;;;;;;7.47;nan;101064.03;4992589;28;20034;-76
2021/11/16 05:52:35;;;;;;;25.65;13.35;;;;;;;7.37;nan;101057.81;4991769;28;20117;-76
2021/11/16 05:55:00;;;;;;;27.17;13.10;;;;;;;7.40;nan;101052.31;4991661;28;20161;-76
2021/11/16 05:57:26;;;;;;;22.73;13.10;;;;;;;7.34;nan;101055.41;4991115;28;20046;-76
2021/11/16 05:59:52;;;;;;;27.77;13.98;;;;;;;7.26;nan;101053.38;4992471;28;20503;-76
2021/11/16 06:02:18;;;;;;;28.85;13.75;;;;;;;7.26;nan;101063.06;4990201;28;20557;-76
2021/11/16 06:04:44;;;;;;;27.88;14.43;;;;;;;7.38;nan;101076.09;4991798;28;20081;-76
2021/11/16 06:07:10;;;;;;;26.13;13.85;;;;;;;7.39;nan;101063.81;4990320;28;20146;-76
2021/11/16 06:09:35;;;;;;;27.60;14.15;;;;;;;7.40;nan;101068.09;4982642;28;20488;-76
2021/11/16 06:12:02;;;;;;;21.90;12.35;;;;;;;7.36;nan;101071.91;4989871;28;20042;-77
2021/11/16 06:14:28;;;;;;;24.23;13.02;;;;;;;7.41;nan;101075.00;4984053;28;20045;-76
2021/11/16 06:16:54;;;;;;;24.70;12.77;;;;;;;7.39;nan;101074.31;4996877;28;20030;-76
2021/11/16 06:19:23;;;;;;;27.02;14.27;;;;;;;7.40;nan;101074.19;4990971;28;20030;-76
2021/11/16 06:21:49;;;;;;;21.77;12.40;;;;;;;7.34;nan;101079.06;4991891;28;20431;-76
2021/11/16 06:24:14;;;;;;;23.23;12.88;;;;;;;7.35;nan;101083.41;4990913;28;20039;-76
2021/11/16 06:26:39;;;;;;;27.77;14.35;;;;;;;7.40;nan;101086.50;4990460;28;20034;-76
2021/11/16 06:29:06;;;;;;;24.45;12.50;;;;;;;7.40;nan;101083.88;4990467;28;20041;-75
2021/11/16 06:31:33;;;;;;;25.17;13.20;;;;;;;7.38;nan;101081.34;4991550;28;20062;-75
2021/11/16 06:33:59;;;;;;;19.70;11.23;;;;;;;7.35;nan;101089.50;4990806;28;20058;-75
2021/11/16 06:36:33;;;;;;;18.02;9.40;;;;;;;7.38;nan;101085.78;4993547;28;20062;-75
2021/11/16 06:39:10;;;;;;;18.73;9.98;;;;;;;7.37;nan;101092.84;4989908;28;20042;-75
2021/11/16 06:41:36;;;;;;;19.95;10.70;;;;;;;7.42;nan;101089.88;4992194;28;20082;-75
2021/11/16 06:44:02;;;;;;;21.55;11.65;;;;;;;7.45;nan;101092.25;4990052;28;20434;-75
2021/11/16 06:46:30;;;;;;;18.55;10.05;;;;;;;7.49;nan;101092.88;4989957;28;20038;-75
2021/11/16 06:48:57;;;;;;;23.23;12.18;;;;;;;7.43;nan;101094.16;4991232;28;20046;-75
2021/11/16 06:51:22;;;;;;;19.58;11.75;;;;;;;7.43;nan;101102.06;4992768;28;20028;-75
2021/11/16 06:53:47;;;;;;;18.63;10.73;;;;;;;7.41;nan;101103.97;4991628;28;20168;-75
2021/11/16 06:56:13;;;;;;;21.17;11.73;;;;;;;7.33;nan;101099.28;4991194;28;20066;-75
2021/11/16 06:58:38;;;;;;;21.45;12.07;;;;;;;7.37;nan;101094.66;4991486;28;20525;-75
2021/11/16 07:01:05;;;;;;;21.10;12.00;;;;;;;7.35;nan;101097.38;4990762;28;20035;-75
2021/11/16 07:03:31;;;;;;;20.90;11.77;;;;;;;7.38;nan;101099.78;4990204;28;20188;-75
2021/11/16 07:06:03;;;;;;;19.08;10.80;;;;;;;7.40;nan;101112.81;4990114;28;20042;-76
2021/11/16 07:08:35;;;;;;;17.58;10.00;;;;;;;7.41;nan;101106.59;4990051;28;20140;-76
2021/11/16 07:11:17;;;;;;;17.75;10.23;;;;;;;7.40;nan;101110.19;4991637;28;20040;-75
2021/11/16 07:14:04;;;;;;;18.15;9.27;;;;;;;7.43;nan;101110.78;4991262;28;20041;-75
2021/11/16 07:16:36;;;;;;;19.55;10.80;;;;;;;7.38;nan;101107.66;4986052;28;20558;-76
2021/11/16 07:19:08;;;;;;;19.73;11.07;;;;;;;7.37;nan;101106.00;4990477;28;20038;-76
2021/11/16 07:21:51;;;;;;;17.75;10.10;;;;;;;7.36;nan;101104.31;4989347;28;20030;-76
2021/11/16 07:24:22;;;;;;;18.05;9.75;;;;;;;7.38;nan;101112.09;4989672;28;20483;-76
2021/11/16 07:27:07;;;;;;;17.27;9.45;;;;;;;7.39;nan;101117.25;4988646;28;20038;-76
2021/11/16 07:29:55;;;;;;;17.20;9.90;;;;;;;7.44;nan;101112.47;4989269;28;20046;-77
2021/11/16 07:32:25;;;;;;;18.98;9.90;;;;;;;7.45;nan;101121.19;4990058;28;20030;-75
2021/11/16 07:34:51;;;;;;;18.33;9.82;;;;;;;7.49;nan;101119.19;4990974;28;20507;-74
2021/11/16 07:37:20;;;;;;;23.17;12.73;;;;;;;7.45;nan;101115.94;4991393;28;20042;-77
2021/11/16 07:39:59;;;;;;;22.13;11.70;;;;;;;7.43;nan;101113.41;4989273;28;20039;-77
2021/11/16 07:42:31;;;;;;;19.88;11.25;;;;;;;7.41;nan;101112.72;4988311;28;20038;-75
2021/11/16 07:45:09;;;;;;;25.50;13.43;;;;;;;7.37;nan;101108.63;4989216;28;20106;-75
2021/11/16 07:47:39;;;;;;;27.67;13.65;;;;;;;7.20;nan;101114.34;4991165;28;20038;-77
2021/11/16 07:50:06;;;;;;;26.13;14.57;;;;;;;7.16;nan;101113.72;4990182;28;20097;-75
2021/11/16 07:52:32;;;;;;;26.45;12.90;;;;;;;7.26;nan;101113.84;4981333;28;20070;-75
2021/11/16 07:54:57;;;;;;;24.75;12.95;;;;;;;7.34;nan;101111.50;4984490;28;20058;-77
2021/11/16 07:57:22;;;;;;;34.83;16.77;;;;;;;7.23;nan;101114.94;4990234;28;20030;-75
2021/11/16 07:59:54;;;;;;;46.15;19.15;;;;;;;7.24;nan;101115.75;4991466;28;20045;-75
2021/11/16 08:02:34;;;;;;;41.60;17.27;;;;;;;7.28;nan;101117.22;4990781;28;20385;-77
2021/11/16 08:05:34;;;;;;;55.33;19.80;;;;;;;7.24;nan;101115.75;4979707;28;20116;-77
2021/11/16 08:08:23;;;;;;;52.63;20.90;;;;;;;7.28;nan;101111.97;4991447;28;20470;-75
2021/11/16 08:10:54;;;;;;;40.25;16.60;;;;;;;7.23;nan;101117.56;4989129;28;20042;-75
2021/11/16 08:13:28;;;;;;;26.13;14.55;;;;;;;7.27;nan;101125.22;4991004;28;20030;-76
2021/11/16 08:16:05;;;;;;;28.60;14.60;;;;;;;7.31;nan;101127.50;4995101;28;20034;-75
2021/11/16 08:18:41;;;;;;;26.88;14.18;;;;;;;7.27;nan;101122.59;4990342;28;20695;-74
2021/11/16 08:21:06;;;;;;;25.33;13.57;;;;;;;7.34;nan;101136.94;4992992;28;20391;-75
2021/11/16 08:23:32;;;;;;;31.45;14.98;;;;;;;7.38;nan;101131.34;4993644;28;20034;-75
2021/11/16 08:25:57;;;;;;;35.08;16.55;;;;;;;7.42;nan;101130.16;4993758;28;20073;-76
2021/11/16 08:28:23;;;;;;;45.42;18.42;;;;;;;7.30;nan;101125.84;4993147;28;20069;-76
2021/11/16 08:30:48;;;;;;;47.55;19.23;;;;;;;7.36;nan;101128.00;4993207;28;20065;-76
2021/11/16 08:33:14;;;;;;;46.58;18.52;;;;;;;7.36;nan;101122.72;4993934;28;20089;-77
2021/11/16 08:35:44;;;;;;;70.80;23.73;;;;;;;7.46;nan;101125.53;4995108;28;20073;-76
2021/11/16 08:38:12;;;;;;;51.83;20.33;;;;;;;7.49;nan;101116.56;4994729;28;20430;-76
2021/11/16 08:40:39;;;;;;;29.17;14.35;;;;;;;7.52;nan;101116.31;4995046;28;20046;-76
2021/11/16 08:43:12;;;;;;;27.67;14.23;;;;;;;7.49;nan;101116.56;4993328;28;20496;-76
2021/11/16 08:45:43;;;;;;;26.25;14.00;;;;;;;7.38;nan;101117.34;4993491;28;20074;-76
2021/11/16 08:48:12;;;;;;;25.85;14.55;;;;;;;7.39;nan;101112.00;4992232;28;20549;-76
2021/11/16 08:50:41;;;;;;;24.83;13.18;;;;;;;7.32;nan;101110.78;4994586;28;20044;-76
2021/11/16 08:53:12;;;;;;;26.50;13.55;;;;;;;7.40;nan;101111.03;4992914;28;20043;-77
2021/11/16 08:55:39;;;;;;;37.75;17.95;;;;;;;7.44;nan;101112.47;4991883;28;20487;-76
2021/11/16 08:58:08;;;;;;;49.13;20.42;;;;;;;7.39;nan;101111.16;4992976;28;20092;-76
2021/11/16 09:00:46;;;;;;;38.88;17.92;;;;;;;7.37;nan;101113.06;4972710;28;20349;-76
2021/11/16 09:03:15;;;;;;;32.55;14.75;;;;;;;7.32;nan;101113.41;4993208;28;20503;-76
2021/11/16 09:05:47;;;;;;;38.28;16.83;;;;;;;7.48;nan;101113.06;4993120;28;20038;-76
2021/11/16 09:08:13;;;;;;;34.10;16.33;;;;;;;7.57;nan;101115.00;4990757;28;20526;-76
2021/11/16 09:10:41;;;;;;;29.05;14.52;;;;;;;7.59;nan;101109.63;4993131;28;20042;-76
2021/11/16 09:13:09;;;;;;;28.48;14.88;;;;;;;7.72;nan;101120.03;4991849;28;20030;-76
2021/11/16 09:15:44;;;;;;;26.15;14.20;;;;;;;7.63;nan;101111.91;4992742;28;20042;-76
2021/11/16 09:18:20;;;;;;;27.58;13.88;;;;;;;7.70;nan;101114.03;4990542;28;20486;-76
2021/11/16 09:21:02;;;;;;;30.42;14.98;;;;;;;7.69;nan;101115.84;4992785;28;20041;-76
2021/11/16 09:23:37;;;;;;;29.60;15.38;;;;;;;7.62;nan;101112.00;4991352;28;20038;-76
2021/11/16 09:26:23;;;;;;;27.27;15.23;;;;;;;7.55;nan;101111.63;4992235;28;20058;-76
2021/11/16 09:28:53;;;;;;;26.20;13.73;;;;;;;7.58;nan;101123.72;4995670;28;20037;-76
2021/11/16 09:31:23;;;;;;;28.52;15.38;;;;;;;7.73;nan;101119.91;4990360;28;20062;-76
2021/11/16 09:33:51;;;;;;;25.30;14.38;;;;;;;7.72;nan;101117.41;4990651;28;20315;-76
2021/11/16 09:36:34;;;;;;;26.27;14.07;;;;;;;7.71;nan;101119.19;4991454;28;20419;-76
2021/11/16 09:39:07;;;;;;;24.25;12.60;;;;;;;7.59;nan;101109.63;4991286;28;20050;-76
2021/11/16 09:41:37;;;;;;;24.95;13.05;;;;;;;7.54;nan;101117.03;4982929;28;20056;-76
2021/11/16 09:44:13;;;;;;;24.48;12.07;;;;;;;7.59;nan;101120.97;4983505;28;20069;-76
2021/11/16 09:46:58;;;;;;;21.85;12.40;;;;;;;7.65;nan;101123.16;4990237;28;20165;-76
2021/11/16 09:49:45;;;;;;;24.25;13.50;;;;;;;7.60;nan;101120.03;4992350;28;20444;-76
2021/11/16 09:52:19;;;;;;;27.90;15.20;;;;;;;7.77;nan;101125.78;4989075;28;20042;-76
2021/11/16 09:55:06;;;;;;;31.10;15.48;;;;;;;7.74;nan;101124.22;4990626;28;20538;-76
2021/11/16 09:57:33;;;;;;;29.23;14.75;;;;;;;7.73;nan;101124.34;4992676;28;20066;-76
2021/11/16 10:00:18;;;;;;;30.55;15.23;;;;;;;7.72;nan;101115.59;4990670;28;20046;-76
2021/11/16 10:02:50;;;;;;;41.63;18.25;;;;;;;7.75;nan;101114.56;4989184;28;20046;-76
2021/11/16 10:05:20;;;;;;;36.00;15.48;;;;;;;7.74;nan;101107.59;4989096;28;20514;-76
2021/11/16 10:07:50;;;;;;;30.00;14.75;;;;;;;7.73;nan;101105.94;4990514;28;20050;-76
2021/11/16 10:10:17;;;;;;;27.92;14.57;;;;;;;7.76;nan;101100.41;4988372;28;20459;-76
2021/11/16 10:13:08;;;;;;;31.60;14.98;;;;;;;7.86;nan;101102.22;4989437;28;20050;-76
2021/11/16 10:15:36;;;;;;;31.40;14.25;;;;;;;7.81;nan;101109.63;4986293;28;20087;-76
2021/11/16 10:18:02;;;;;;;27.30;14.80;;;;;;;7.87;nan;101098.63;4986093;28;20030;-76
2021/11/16 10:20:31;;;;;;;26.77;13.82;;;;;;;7.87;nan;101098.63;4986801;28;20047;-76
2021/11/16 10:22:59;;;;;;;25.85;13.57;;;;;;;7.91;nan;101101.84;4984560;28;20542;-77
2021/11/16 10:25:28;;;;;;;26.63;13.02;;;;;;;8.00;nan;101102.91;4989109;28;20121;-76
2021/11/16 10:27:56;;;;;;;26.77;14.25;;;;;;;8.02;nan;101101.00;4990621;28;20273;-76
2021/11/16 10:30:25;;;;;;;21.20;11.73;;;;;;;7.96;nan;101110.25;4988002;28;20038;-76
2021/11/16 10:33:12;;;;;;;21.42;11.68;;;;;;;7.98;nan;101108.31;4989192;28;20669;-76
2021/11/16 10:35:53;;;;;;;19.75;10.75;;;;;;;8.05;nan;101106.03;4996939;28;20069;-76
2021/11/16 10:38:25;;;;;;;22.33;12.20;;;;;;;8.08;nan;101101.38;4989961;28;20101;-76
2021/11/16 10:40:53;;;;;;;21.10;10.60;;;;;;;8.05;nan;101101.59;4990386;28;20050;-76
2021/11/16 10:43:18;;;;;;;23.08;12.48;;;;;;;7.99;nan;101103.91;4990566;28;20384;-76
2021/11/16 10:45:47;;;;;;;25.15;12.95;;;;;;;8.01;nan;101094.09;4989412;28;20077;-76
2021/11/16 10:48:16;;;;;;;21.30;11.40;;;;;;;8.02;nan;101095.75;4989234;28;20034;-76
2021/11/16 10:50:45;;;;;;;21.00;11.45;;;;;;;8.05;nan;101101.59;4991718;28;20070;-75
2021/11/16 10:53:18;;;;;;;19.40;10.10;;;;;;;8.08;nan;101103.16;4988860;28;20041;-76
2021/11/16 10:55:46;;;;;;;27.02;13.60;;;;;;;8.07;nan;101099.69;4989046;28;20034;-76
2021/11/16 10:58:20;;;;;;;23.67;13.57;;;;;;;7.99;nan;101103.91;4989076;28;20030;-76
2021/11/16 11:01:03;;;;;;;27.45;14.30;;;;;;;7.90;nan;101096.72;4988362;28;20034;-76
2021/11/16 11:03:33;;;;;;;23.65;12.88;;;;;;;7.86;nan;101096.09;4987814;28;20049;-76
2021/11/16 11:06:07;;;;;;;22.60;11.95;;;;;;;7.86;nan;101101.38;4988333;28;20034;-76
2021/11/16 11:08:55;;;;;;;20.80;11.00;;;;;;;7.87;nan;101090.72;4972140;28;20506;-76
2021/11/16 11:11:23;;;;;;;21.27;10.43;;;;;;;7.87;nan;101087.25;4988592;28;20030;-76
2021/11/16 11:14:01;;;;;;;23.55;12.48;;;;;;;7.78;nan;101086.19;4988668;28;20117;-75
2021/11/16 11:16:27;;;;;;;30.83;14.50;;;;;;;7.75;nan;101072.44;4987545;28;20035;-77
2021/11/16 11:18:55;;;;;;;28.80;14.35;;;;;;;7.64;nan;101075.88;4986878;28;20034;-76
2021/11/16 11:21:38;;;;;;;22.55;12.80;;;;;;;7.54;nan;101070.50;4989211;28;20118;-76
2021/11/16 11:24:39;;;;;;;22.42;12.63;;;;;;;7.51;nan;101072.50;4988988;28;20058;-76
2021/11/16 11:27:10;;;;;;;28.38;14.32;;;;;;;7.47;nan;101068.47;4975284;28;20578;-76
2021/11/16 11:29:52;;;;;;;23.73;12.55;;;;;;;7.38;nan;101062.94;4990213;28;20034;-76
2021/11/16 11:32:26;;;;;;;29.00;14.18;;;;;;;7.34;nan;101063.28;4990076;28;20467;-76
2021/11/16 11:35:00;;;;;;;25.67;14.45;;;;;;;7.23;nan;101064.13;4987685;28;20495;-76
2021/11/16 11:37:34;;;;;;;24.38;12.88;;;;;;;7.19;nan;101060.88;4989745;28;20443;-76
2021/11/16 11:40:05;;;;;;;28.38;13.60;;;;;;;7.16;nan;101057.66;4988907;28;20038;-76
2021/11/16 11:42:34;;;;;;;25.98;14.20;;;;;;;7.13;nan;101052.63;4982819;28;20043;-77
2021/11/16 11:45:08;;;;;;;23.67;13.25;;;;;;;7.10;nan;101052.84;4987479;28;20084;-76
2021/11/16 11:47:35;;;;;;;24.85;13.43;;;;;;;7.08;nan;101049.50;4988199;28;20522;-76
2021/11/16 11:50:25;;;;;;;27.25;14.80;;;;;;;7.09;nan;101048.56;4985059;28;20627;-76
2021/11/16 11:52:51;;;;;;;24.58;13.90;;;;;;;7.05;nan;101047.09;4986364;28;20035;-76
2021/11/16 11:55:18;;;;;;;27.88;14.45;;;;;;;7.00;nan;101045.66;4989886;28;20080;-76